Time;durP1;ratioP1;P1;durP2;ratioP2;P2;SDS_P1;SDS_P2;PMS_P1;PMS_P2;Temp;Humidity;BMP_temperature;BMP_pressure;BME280_temperature;BME280_humidity;BME280_pressure;Samples;Min_cycle;Max_cycle;Signal;HPM_P1;HPM_P2
2023/01/27 00:00:29;;;;;;;10.77;2.20;;;;;;;;;;5111120;28;20194;-75
2023/01/27 00:02:58;;;;;;;6.47;1.80;;;;;;;;;;5112044;28;20228;-75
2023/01/27 00:05:25;;;;;;;5.53;2.10;;;;;;;;;;5112313;28;20226;-74
2023/01/27 00:07:52;;;;;;;6.73;2.00;;;;;;;;;;5111190;28;20671;-75
2023/01/27 00:10:20;;;;;;;5.07;1.70;;;;;;;;;;5111721;28;20273;-75
2023/01/27 00:15:34;;;;;;;5.97;1.77;;;;;;;;;;5111568;28;20326;-75
2023/01/27 00:18:02;;;;;;;7.97;1.90;;;;;;;;;;5111351;28;20292;-75
2023/01/27 00:26:05;;;;;;;6.50;1.57;;;;;;;;;;5111692;28;20206;-75
2023/01/27 00:28:32;;;;;;;6.10;1.60;;;;;;;;;;5110916;28;20235;-75
2023/01/27 00:31:00;;;;;;;6.03;1.80;;;;;;;;;;5111388;28;20291;-74
2023/01/27 00:33:28;;;;;;;5.43;1.87;;;;;;;;;;5111320;28;20327;-74
2023/01/27 00:35:59;;;;;;;4.40;1.47;;;;;;;;;;5114127;28;20598;-75
2023/01/27 00:38:26;;;;;;;7.30;2.20;;;;;;;;;;5115087;28;20681;-74
2023/01/27 00:43:35;;;;;;;5.33;1.70;;;;;;;;;;5114669;28;20326;-75
2023/01/27 00:46:02;;;;;;;5.03;1.63;;;;;;;;;;5115206;28;20289;-75
2023/01/27 00:48:30;;;;;;;6.77;1.77;;;;;;;;;;5115178;27;20268;-74
2023/01/27 00:50:58;;;;;;;3.40;1.43;;;;;;;;;;5115305;28;20192;-75
2023/01/27 00:53:25;;;;;;;5.40;1.57;;;;;;;;;;5114998;28;20322;-74
2023/01/27 00:55:52;;;;;;;6.23;1.70;;;;;;;;;;5114930;27;20283;-74
2023/01/27 00:58:21;;;;;;;3.93;1.50;;;;;;;;;;5114703;28;20280;-75
2023/01/27 01:00:49;;;;;;;5.43;1.60;;;;;;;;;;5115095;28;20252;-75
2023/01/27 01:03:17;;;;;;;3.53;1.60;;;;;;;;;;5114697;27;20290;-75
2023/01/27 01:05:45;;;;;;;5.50;1.53;;;;;;;;;;5114856;27;20227;-75
2023/01/27 01:08:12;;;;;;;8.37;2.00;;;;;;;;;;5114396;28;20292;-75
2023/01/27 01:10:39;;;;;;;6.60;2.20;;;;;;;;;;5114388;28;20284;-75
2023/01/27 01:13:08;;;;;;;8.97;2.40;;;;;;;;;;5115137;28;20352;-75
2023/01/27 01:15:36;;;;;;;8.03;2.00;;;;;;;;;;5114860;28;20217;-74
2023/01/27 01:18:03;;;;;;;6.53;1.80;;;;;;;;;;5114671;28;20199;-75
2023/01/27 01:20:31;;;;;;;8.00;1.70;;;;;;;;;;5114102;28;20200;-75
2023/01/27 01:22:59;;;;;;;8.30;1.80;;;;;;;;;;5114867;28;20193;-75
2023/01/27 01:25:26;;;;;;;6.50;1.50;;;;;;;;;;5113779;28;20323;-75
2023/01/27 01:27:53;;;;;;;5.37;1.57;;;;;;;;;;5114343;28;20267;-75
2023/01/27 01:30:21;;;;;;;5.73;1.83;;;;;;;;;;5114126;28;20682;-75
2023/01/27 01:32:48;;;;;;;4.97;1.60;;;;;;;;;;5114048;28;20332;-75
2023/01/27 01:35:15;;;;;;;5.23;1.67;;;;;;;;;;5114641;28;20285;-75
2023/01/27 01:37:42;;;;;;;4.83;1.70;;;;;;;;;;5113336;28;20284;-75
2023/01/27 01:40:12;;;;;;;5.03;1.53;;;;;;;;;;5113625;28;20538;-75
2023/01/27 01:42:48;;;;;;;4.27;1.40;;;;;;;;;;5113923;28;20738;-75
2023/01/27 01:45:38;;;;;;;5.53;1.30;;;;;;;;;;5113936;28;20288;-75
2023/01/27 01:48:07;;;;;;;5.90;1.53;;;;;;;;;;5107684;28;20221;-74
2023/01/27 01:50:36;;;;;;;7.27;1.20;;;;;;;;;;5113976;28;20283;-75
2023/01/27 01:53:05;;;;;;;3.90;1.20;;;;;;;;;;5113595;28;20773;-74
2023/01/27 01:55:35;;;;;;;4.50;1.20;;;;;;;;;;5113149;28;20286;-75
2023/01/27 01:58:02;;;;;;;7.13;1.50;;;;;;;;;;5113828;28;20312;-74
2023/01/27 02:00:29;;;;;;;3.70;1.40;;;;;;;;;;5113781;28;20232;-75
2023/01/27 02:02:57;;;;;;;6.13;1.40;;;;;;;;;;5114128;28;20203;-74
2023/01/27 02:05:27;;;;;;;3.37;1.20;;;;;;;;;;5113813;28;20284;-75
2023/01/27 02:07:57;;;;;;;3.63;1.40;;;;;;;;;;5113414;28;20730;-74
2023/01/27 02:10:25;;;;;;;5.40;1.40;;;;;;;;;;5113334;28;20242;-75
2023/01/27 02:12:53;;;;;;;4.40;1.50;;;;;;;;;;5113506;28;20324;-75
2023/01/27 02:15:21;;;;;;;6.67;1.50;;;;;;;;;;5113185;28;20228;-75
2023/01/27 02:17:48;;;;;;;3.40;1.20;;;;;;;;;;5113470;28;20200;-75
2023/01/27 02:20:17;;;;;;;4.57;1.60;;;;;;;;;;5113594;28;20265;-75
2023/01/27 02:22:50;;;;;;;5.83;1.23;;;;;;;;;;5113420;28;20293;-74
2023/01/27 02:25:20;;;;;;;6.13;1.10;;;;;;;;;;5113118;27;20235;-75
2023/01/27 02:27:49;;;;;;;4.27;1.30;;;;;;;;;;5113029;28;20257;-75
2023/01/27 02:30:16;;;;;;;2.23;1.23;;;;;;;;;;5113291;28;20278;-75
2023/01/27 02:32:44;;;;;;;6.83;1.40;;;;;;;;;;5112845;28;20312;-75
2023/01/27 02:35:14;;;;;;;5.93;1.40;;;;;;;;;;5112714;28;20201;-75
2023/01/27 02:37:42;;;;;;;3.93;1.30;;;;;;;;;;5112702;28;20242;-75
2023/01/27 02:40:10;;;;;;;3.87;1.10;;;;;;;;;;5113762;28;20290;-75
2023/01/27 02:42:37;;;;;;;4.33;1.30;;;;;;;;;;5113151;28;20233;-75
2023/01/27 02:45:06;;;;;;;4.17;1.10;;;;;;;;;;5112854;28;20215;-75
2023/01/27 02:47:34;;;;;;;5.97;1.40;;;;;;;;;;5112775;28;20287;-75
2023/01/27 02:50:01;;;;;;;4.50;1.03;;;;;;;;;;5112708;28;20284;-75
2023/01/27 02:52:28;;;;;;;6.23;1.00;;;;;;;;;;5109125;28;20295;-74
2023/01/27 02:54:55;;;;;;;4.07;1.13;;;;;;;;;;5102890;28;20287;-74
2023/01/27 02:57:22;;;;;;;3.03;1.10;;;;;;;;;;5091914;28;20281;-75
2023/01/27 02:59:49;;;;;;;4.03;1.10;;;;;;;;;;5092177;28;20292;-76
2023/01/27 03:02:21;;;;;;;4.63;0.90;;;;;;;;;;5092189;28;20289;-76
2023/01/27 03:04:48;;;;;;;2.93;0.80;;;;;;;;;;5092336;28;20198;-76
2023/01/27 03:07:16;;;;;;;3.27;1.13;;;;;;;;;;5091662;28;20297;-75
2023/01/27 03:09:43;;;;;;;5.33;1.37;;;;;;;;;;5092249;28;20194;-75
2023/01/27 03:12:19;;;;;;;4.53;1.10;;;;;;;;;;5105848;28;20288;-75
2023/01/27 03:20:18;;;;;;;4.67;1.30;;;;;;;;;;5112175;28;20204;-75
2023/01/27 03:22:46;;;;;;;4.53;1.07;;;;;;;;;;5112283;28;20289;-75
2023/01/27 03:25:13;;;;;;;4.20;1.27;;;;;;;;;;5111228;28;20641;-75
2023/01/27 03:27:40;;;;;;;4.57;1.07;;;;;;;;;;5112123;28;20324;-75
2023/01/27 03:30:08;;;;;;;4.23;1.13;;;;;;;;;;5112119;28;20228;-75
2023/01/27 03:32:37;;;;;;;4.43;1.17;;;;;;;;;;5111726;28;20193;-75
2023/01/27 03:35:04;;;;;;;5.80;1.30;;;;;;;;;;5111842;28;20298;-75
2023/01/27 03:48:35;;;;;;;4.33;1.23;;;;;;;;;;5111680;28;20661;-75
2023/01/27 03:51:03;;;;;;;5.23;1.43;;;;;;;;;;5111101;28;20899;-75
2023/01/27 03:53:30;;;;;;;6.37;1.43;;;;;;;;;;5112256;28;20308;-75
2023/01/27 03:55:57;;;;;;;5.67;1.50;;;;;;;;;;5111951;28;20275;-75
2023/01/27 03:58:25;;;;;;;3.60;1.23;;;;;;;;;;5111637;28;20291;-76
2023/01/27 04:00:53;;;;;;;6.93;1.60;;;;;;;;;;5111531;28;20228;-76
2023/01/27 04:08:53;;;;;;;6.03;1.70;;;;;;;;;;5111348;28;20224;-75
2023/01/27 04:14:06;;;;;;;7.40;1.70;;;;;;;;;;5115916;28;20716;-75
2023/01/27 04:16:35;;;;;;;7.30;2.10;;;;;;;;;;5115768;28;20717;-75
2023/01/27 04:19:03;;;;;;;10.90;2.00;;;;;;;;;;5115672;28;20614;-75
2023/01/27 04:21:32;;;;;;;8.03;1.80;;;;;;;;;;5115336;28;20221;-75
2023/01/27 04:23:59;;;;;;;8.93;2.17;;;;;;;;;;5115640;28;20304;-76
2023/01/27 04:26:31;;;;;;;9.67;1.90;;;;;;;;;;5115428;28;20296;-75
2023/01/27 04:28:59;;;;;;;5.73;2.00;;;;;;;;;;5115187;28;20375;-76
2023/01/27 04:31:26;;;;;;;9.33;1.87;;;;;;;;;;5115804;28;20716;-76
2023/01/27 04:33:53;;;;;;;10.43;2.13;;;;;;;;;;5114765;28;20709;-75
2023/01/27 04:36:20;;;;;;;9.13;1.77;;;;;;;;;;5115149;28;20656;-75
2023/01/27 04:38:49;;;;;;;8.43;1.67;;;;;;;;;;5115491;28;20760;-75
2023/01/27 04:41:16;;;;;;;11.17;1.90;;;;;;;;;;5115540;28;20280;-75
2023/01/27 04:43:43;;;;;;;6.30;1.70;;;;;;;;;;5115070;28;20287;-75
2023/01/27 04:46:10;;;;;;;4.83;1.70;;;;;;;;;;5114991;28;20298;-75
2023/01/27 04:48:38;;;;;;;8.43;1.63;;;;;;;;;;5114995;28;20303;-75
2023/01/27 04:51:05;;;;;;;6.37;1.60;;;;;;;;;;5115050;28;20295;-75
2023/01/27 04:53:32;;;;;;;7.80;1.60;;;;;;;;;;5115159;28;20315;-74
2023/01/27 04:56:05;;;;;;;9.20;1.67;;;;;;;;;;5114637;28;20235;-75
2023/01/27 04:58:33;;;;;;;10.10;1.63;;;;;;;;;;5114729;28;20773;-74
2023/01/27 05:01:00;;;;;;;8.70;1.87;;;;;;;;;;5114795;27;20221;-75
2023/01/27 05:03:27;;;;;;;5.70;1.20;;;;;;;;;;5114693;28;20227;-75
2023/01/27 05:05:54;;;;;;;7.40;1.33;;;;;;;;;;5115281;28;20200;-75
2023/01/27 05:08:21;;;;;;;6.07;1.50;;;;;;;;;;5114649;28;20227;-75
2023/01/27 05:10:48;;;;;;;9.80;1.50;;;;;;;;;;5114936;28;20289;-74
2023/01/27 05:13:17;;;;;;;8.90;1.40;;;;;;;;;;5114574;28;20287;-75
2023/01/27 05:15:44;;;;;;;10.00;1.73;;;;;;;;;;5104460;28;20698;-75
2023/01/27 05:18:11;;;;;;;6.10;1.60;;;;;;;;;;5106170;28;20236;-75
2023/01/27 05:20:38;;;;;;;6.60;1.60;;;;;;;;;;5095899;28;20306;-75
2023/01/27 05:25:50;;;;;;;6.00;1.40;;;;;;;;;;5094031;28;20681;-74
2023/01/27 05:28:19;;;;;;;6.73;1.50;;;;;;;;;;5093811;28;20230;-74
2023/01/27 05:30:46;;;;;;;8.67;1.70;;;;;;;;;;5093785;28;20222;-74
2023/01/27 05:33:13;;;;;;;5.37;1.30;;;;;;;;;;5099201;28;20234;-75
2023/01/27 05:35:40;;;;;;;6.57;1.33;;;;;;;;;;5114580;28;20285;-76
2023/01/27 05:38:08;;;;;;;8.80;1.40;;;;;;;;;;5114224;28;20222;-75
2023/01/27 05:40:35;;;;;;;9.63;1.30;;;;;;;;;;5113491;28;20216;-75
2023/01/27 05:43:02;;;;;;;6.93;1.10;;;;;;;;;;5114361;28;20199;-74
2023/01/27 05:45:30;;;;;;;6.37;1.30;;;;;;;;;;5114045;28;20297;-76
2023/01/27 05:47:58;;;;;;;6.37;1.57;;;;;;;;;;5113280;28;20193;-75
2023/01/27 05:50:25;;;;;;;10.13;1.33;;;;;;;;;;5113762;28;20290;-75
2023/01/27 05:52:52;;;;;;;6.90;1.27;;;;;;;;;;5113852;28;20289;-74
2023/01/27 05:55:19;;;;;;;8.17;1.30;;;;;;;;;;5113573;28;20828;-75
2023/01/27 05:57:46;;;;;;;7.07;1.30;;;;;;;;;;5113864;28;20633;-75
2023/01/27 06:00:14;;;;;;;4.80;1.20;;;;;;;;;;5114182;28;20221;-74
2023/01/27 06:02:43;;;;;;;8.93;1.33;;;;;;;;;;5113633;28;20198;-74
2023/01/27 06:05:10;;;;;;;7.77;1.50;;;;;;;;;;5113348;28;20280;-75
2023/01/27 06:07:37;;;;;;;8.23;1.33;;;;;;;;;;5113955;28;20229;-74
2023/01/27 06:10:05;;;;;;;8.10;1.47;;;;;;;;;;5113828;28;20289;-75
2023/01/27 06:12:32;;;;;;;4.77;1.53;;;;;;;;;;5113655;28;20197;-74
2023/01/27 06:14:59;;;;;;;5.17;2.00;;;;;;;;;;5113712;28;20323;-75
2023/01/27 06:17:27;;;;;;;6.80;1.23;;;;;;;;;;5113004;28;20277;-75
2023/01/27 06:19:55;;;;;;;6.87;1.53;;;;;;;;;;5113483;28;20193;-75
2023/01/27 06:22:22;;;;;;;7.10;1.50;;;;;;;;;;5113554;28;20214;-75
2023/01/27 06:24:49;;;;;;;6.80;1.73;;;;;;;;;;5112996;27;20292;-76
2023/01/27 06:27:17;;;;;;;9.33;1.37;;;;;;;;;;5113347;28;20320;-75
2023/01/27 06:29:44;;;;;;;6.80;1.50;;;;;;;;;;5112254;28;20297;-76
2023/01/27 06:32:11;;;;;;;4.97;1.33;;;;;;;;;;5112459;28;20288;-76
2023/01/27 06:34:38;;;;;;;6.53;1.50;;;;;;;;;;5113038;28;20323;-76
2023/01/27 06:37:07;;;;;;;8.47;1.60;;;;;;;;;;5113616;28;20280;-75
2023/01/27 06:39:34;;;;;;;5.27;1.23;;;;;;;;;;5112918;28;20299;-74
2023/01/27 06:42:01;;;;;;;6.53;1.50;;;;;;;;;;5110199;27;20291;-75
2023/01/27 06:44:28;;;;;;;9.60;1.47;;;;;;;;;;5105950;28;20201;-75
2023/01/27 06:46:55;;;;;;;8.57;1.50;;;;;;;;;;5112849;28;20281;-74
2023/01/27 06:49:23;;;;;;;7.00;1.23;;;;;;;;;;5112735;28;20292;-74
2023/01/27 06:51:50;;;;;;;5.43;1.37;;;;;;;;;;5112733;28;20665;-75
2023/01/27 06:54:18;;;;;;;4.50;1.37;;;;;;;;;;5112755;28;20274;-75
2023/01/27 06:56:45;;;;;;;13.53;5.13;;;;;;;;;;5112812;28;20240;-74
2023/01/27 06:59:13;;;;;;;25.70;12.27;;;;;;;;;;5111239;28;20661;-74
2023/01/27 07:01:40;;;;;;;9.13;3.53;;;;;;;;;;5104103;28;20301;-74
2023/01/27 07:04:07;;;;;;;6.33;1.70;;;;;;;;;;5111236;28;20280;-75
2023/01/27 07:06:34;;;;;;;10.57;4.30;;;;;;;;;;5103603;28;20289;-75
2023/01/27 07:09:01;;;;;;;10.53;5.07;;;;;;;;;;5106596;28;20235;-75
2023/01/27 07:11:30;;;;;;;12.27;4.17;;;;;;;;;;5111988;28;20292;-75
2023/01/27 07:13:57;;;;;;;13.00;7.50;;;;;;;;;;5111578;28;20292;-75
2023/01/27 07:16:27;;;;;;;6.30;2.70;;;;;;;;;;5111970;28;20295;-74
2023/01/27 07:18:54;;;;;;;8.63;2.93;;;;;;;;;;5112158;28;20293;-75
2023/01/27 07:21:21;;;;;;;6.00;2.00;;;;;;;;;;5111893;28;20193;-75
2023/01/27 07:23:49;;;;;;;3.80;2.13;;;;;;;;;;5112131;28;20288;-75
2023/01/27 07:26:16;;;;;;;7.57;3.10;;;;;;;;;;5111872;28;20272;-75
2023/01/27 07:28:44;;;;;;;5.83;2.13;;;;;;;;;;5106684;28;20244;-75
2023/01/27 07:31:11;;;;;;;8.07;2.33;;;;;;;;;;5100511;28;20251;-75
2023/01/27 07:33:39;;;;;;;4.57;1.70;;;;;;;;;;5093353;28;20291;-75
2023/01/27 07:36:06;;;;;;;9.57;3.13;;;;;;;;;;5100920;28;20322;-75
2023/01/27 07:38:33;;;;;;;9.90;2.63;;;;;;;;;;5110900;28;20633;-74
2023/01/27 07:41:04;;;;;;;8.10;2.17;;;;;;;;;;5111936;28;20627;-75
2023/01/27 07:43:31;;;;;;;6.03;2.80;;;;;;;;;;5111595;28;20342;-74
2023/01/27 07:45:59;;;;;;;8.07;3.27;;;;;;;;;;5110488;28;20295;-74
2023/01/27 07:48:26;;;;;;;7.87;2.30;;;;;;;;;;5111381;28;20284;-74
2023/01/27 07:50:54;;;;;;;7.63;2.30;;;;;;;;;;5111870;28;20221;-75
2023/01/27 07:53:21;;;;;;;7.57;2.30;;;;;;;;;;5111263;28;20297;-75
2023/01/27 07:55:48;;;;;;;8.53;2.93;;;;;;;;;;5111556;28;20229;-75
2023/01/27 07:58:15;;;;;;;6.07;1.70;;;;;;;;;;5111407;28;20304;-74
2023/01/27 08:00:42;;;;;;;6.97;2.17;;;;;;;;;;5111137;28;20288;-75
2023/01/27 08:03:21;;;;;;;6.60;2.43;;;;;;;;;;5111348;28;20288;-75
2023/01/27 08:05:48;;;;;;;6.40;1.93;;;;;;;;;;5111401;28;20203;-74
2023/01/27 08:08:15;;;;;;;11.03;2.70;;;;;;;;;;5111111;28;20288;-75
2023/01/27 08:10:47;;;;;;;6.73;2.10;;;;;;;;;;5110873;28;20285;-74
2023/01/27 08:13:15;;;;;;;6.63;2.00;;;;;;;;;;5110792;28;20212;-74
2023/01/27 08:15:42;;;;;;;7.43;2.10;;;;;;;;;;5103464;28;20579;-75
2023/01/27 08:18:10;;;;;;;6.80;2.90;;;;;;;;;;5091972;28;20311;-75
2023/01/27 08:20:38;;;;;;;7.97;2.37;;;;;;;;;;5090546;28;20209;-75
2023/01/27 08:23:06;;;;;;;6.57;2.10;;;;;;;;;;5097057;28;20292;-75
2023/01/27 08:25:33;;;;;;;17.80;7.37;;;;;;;;;;5091485;28;20205;-74
2023/01/27 08:28:00;;;;;;;6.70;2.30;;;;;;;;;;5094969;28;20322;-75
2023/01/27 08:30:27;;;;;;;8.10;3.53;;;;;;;;;;5110615;28;20289;-75
2023/01/27 08:32:56;;;;;;;6.30;2.17;;;;;;;;;;5110927;28;20600;-76
2023/01/27 08:35:24;;;;;;;7.70;2.83;;;;;;;;;;5110632;28;20221;-75
2023/01/27 08:37:52;;;;;;;9.90;4.07;;;;;;;;;;5111393;28;20213;-75
2023/01/27 08:40:19;;;;;;;12.40;7.63;;;;;;;;;;5110513;28;20289;-76
2023/01/27 08:42:46;;;;;;;4.57;1.70;;;;;;;;;;5111022;28;20301;-75
2023/01/27 08:45:14;;;;;;;6.37;2.90;;;;;;;;;;5110866;28;20281;-75
2023/01/27 08:47:41;;;;;;;9.07;4.97;;;;;;;;;;5108758;28;20291;-75
2023/01/27 08:50:09;;;;;;;4.63;1.70;;;;;;;;;;5100580;28;20288;-75
2023/01/27 08:52:36;;;;;;;3.97;1.37;;;;;;;;;;5094333;28;20252;-76
2023/01/27 08:55:05;;;;;;;5.47;2.57;;;;;;;;;;5110522;28;20268;-75
2023/01/27 08:57:32;;;;;;;6.60;2.43;;;;;;;;;;5115058;28;20200;-76
2023/01/27 08:59:59;;;;;;;6.50;1.70;;;;;;;;;;5114759;28;20281;-74
2023/01/27 09:02:27;;;;;;;4.47;1.50;;;;;;;;;;5114837;28;20291;-75
2023/01/27 09:04:54;;;;;;;5.47;1.53;;;;;;;;;;5107740;28;20288;-76
2023/01/27 09:07:21;;;;;;;4.73;1.40;;;;;;;;;;5113972;28;20372;-76
2023/01/27 09:09:48;;;;;;;5.63;1.40;;;;;;;;;;5113886;28;20285;-75
2023/01/27 09:12:17;;;;;;;5.37;1.53;;;;;;;;;;5114257;28;20284;-75
2023/01/27 09:14:44;;;;;;;5.90;1.50;;;;;;;;;;5114436;28;20308;-76
2023/01/27 09:17:15;;;;;;;5.93;1.60;;;;;;;;;;5114500;27;20288;-75
2023/01/27 09:19:43;;;;;;;5.83;1.60;;;;;;;;;;5113846;28;20189;-75
2023/01/27 09:22:10;;;;;;;6.77;2.37;;;;;;;;;;5113401;28;20289;-75
2023/01/27 09:24:37;;;;;;;7.33;1.60;;;;;;;;;;5103511;28;20293;-75
2023/01/27 09:27:04;;;;;;;6.17;1.63;;;;;;;;;;5093761;28;20738;-75
2023/01/27 09:29:33;;;;;;;4.47;2.10;;;;;;;;;;5106366;28;20288;-75
2023/01/27 09:32:00;;;;;;;6.03;1.80;;;;;;;;;;5114459;28;20293;-74
2023/01/27 09:34:27;;;;;;;5.07;1.67;;;;;;;;;;5113810;28;20224;-75
2023/01/27 09:36:57;;;;;;;2.93;1.60;;;;;;;;;;5114559;28;20301;-75
2023/01/27 09:39:25;;;;;;;4.67;1.60;;;;;;;;;;5113909;28;20285;-76
2023/01/27 09:42:01;;;;;;;7.40;3.30;;;;;;;;;;5114346;28;20758;-75
2023/01/27 09:44:39;;;;;;;7.60;1.80;;;;;;;;;;5113854;28;20189;-74
2023/01/27 09:47:11;;;;;;;4.33;1.80;;;;;;;;;;5112188;28;20340;-75
2023/01/27 09:49:50;;;;;;;8.30;3.83;;;;;;;;;;5106270;28;20305;-76
2023/01/27 09:52:25;;;;;;;12.27;8.97;;;;;;;;;;5114055;28;20277;-75
2023/01/27 09:54:58;;;;;;;11.87;7.40;;;;;;;;;;5113225;28;20662;-75
2023/01/27 09:57:29;;;;;;;7.53;3.53;;;;;;;;;;5113820;28;20676;-75
2023/01/27 10:00:08;;;;;;;6.40;2.47;;;;;;;;;;5113401;28;20284;-75
2023/01/27 10:02:41;;;;;;;9.07;2.50;;;;;;;;;;5113240;28;20635;-74
2023/01/27 10:05:23;;;;;;;5.90;2.03;;;;;;;;;;5113453;28;20321;-76
2023/01/27 10:08:00;;;;;;;6.10;2.33;;;;;;;;;;5109904;28;20392;-75
2023/01/27 10:10:35;;;;;;;8.20;2.00;;;;;;;;;;5113186;27;20296;-75
2023/01/27 10:13:12;;;;;;;8.83;3.23;;;;;;;;;;5093198;28;20284;-76
2023/01/27 10:15:49;;;;;;;16.37;11.23;;;;;;;;;;5093015;28;20321;-76
2023/01/27 10:18:24;;;;;;;8.73;3.73;;;;;;;;;;5113110;28;20198;-76
2023/01/27 10:20:59;;;;;;;7.77;4.97;;;;;;;;;;5108411;28;20297;-76
2023/01/27 10:23:31;;;;;;;5.93;2.60;;;;;;;;;;5101919;28;20198;-76
2023/01/27 10:26:01;;;;;;;10.10;4.60;;;;;;;;;;5113077;28;20268;-76
2023/01/27 10:28:30;;;;;;;5.10;3.40;;;;;;;;;;5112665;28;20327;-74
2023/01/27 10:31:01;;;;;;;8.27;2.20;;;;;;;;;;5113550;27;20285;-76
2023/01/27 10:33:35;;;;;;;7.33;2.43;;;;;;;;;;5112957;28;20795;-76
2023/01/27 10:36:07;;;;;;;3.30;1.80;;;;;;;;;;5112996;28;20267;-76
2023/01/27 10:38:38;;;;;;;4.60;2.23;;;;;;;;;;5113311;28;20254;-76
2023/01/27 10:41:10;;;;;;;3.80;1.70;;;;;;;;;;5112996;28;20217;-76
2023/01/27 10:43:43;;;;;;;3.63;1.93;;;;;;;;;;5112720;28;20193;-76
2023/01/27 10:46:16;;;;;;;3.40;1.87;;;;;;;;;;5112746;28;20209;-76
2023/01/27 10:48:47;;;;;;;3.77;1.73;;;;;;;;;;5112280;28;20295;-76
2023/01/27 10:51:16;;;;;;;3.43;1.70;;;;;;;;;;5111621;27;20189;-75
2023/01/27 10:53:48;;;;;;;4.80;2.60;;;;;;;;;;5111483;28;20228;-76
2023/01/27 10:56:18;;;;;;;4.63;2.00;;;;;;;;;;5112505;28;20232;-75
2023/01/27 10:58:49;;;;;;;3.93;1.90;;;;;;;;;;5112215;28;20316;-76
2023/01/27 11:01:19;;;;;;;4.03;1.97;;;;;;;;;;5112149;28;20286;-75
2023/01/27 11:03:50;;;;;;;3.87;2.20;;;;;;;;;;5112141;28;20733;-75
2023/01/27 11:06:19;;;;;;;4.83;2.00;;;;;;;;;;5112037;28;20201;-75
2023/01/27 11:08:50;;;;;;;6.10;3.03;;;;;;;;;;5112399;28;20296;-75
2023/01/27 11:14:05;;;;;;;6.53;4.93;;;;;;;;;;5111690;28;20202;-76
2023/01/27 11:16:36;;;;;;;6.30;3.03;;;;;;;;;;5112397;28;20233;-76
2023/01/27 11:19:06;;;;;;;6.07;3.03;;;;;;;;;;5112239;28;20221;-76
2023/01/27 11:21:33;;;;;;;7.80;5.20;;;;;;;;;;5111886;28;20773;-75
2023/01/27 11:24:06;;;;;;;13.53;10.20;;;;;;;;;;5111848;28;20288;-76
2023/01/27 11:26:35;;;;;;;5.50;2.47;;;;;;;;;;5111223;28;20253;-76
2023/01/27 11:29:10;;;;;;;12.80;9.93;;;;;;;;;;5110462;28;20705;-75
2023/01/27 11:31:45;;;;;;;5.80;4.83;;;;;;;;;;5111099;28;20284;-74
2023/01/27 11:34:14;;;;;;;6.20;3.67;;;;;;;;;;5108678;28;20287;-75
2023/01/27 11:36:41;;;;;;;8.33;4.60;;;;;;;;;;5110837;28;20328;-76
2023/01/27 11:39:10;;;;;;;5.03;3.20;;;;;;;;;;5108143;28;20747;-75
2023/01/27 11:41:38;;;;;;;5.90;2.97;;;;;;;;;;5111245;28;20217;-75
2023/01/27 11:44:07;;;;;;;6.70;3.97;;;;;;;;;;5110358;28;20280;-75
2023/01/27 11:46:35;;;;;;;3.67;2.47;;;;;;;;;;5110525;28;20276;-75
2023/01/27 11:49:05;;;;;;;5.57;2.80;;;;;;;;;;5110357;28;20198;-75
2023/01/27 11:51:36;;;;;;;3.47;2.30;;;;;;;;;;5108836;28;20599;-74
2023/01/27 11:54:05;;;;;;;5.70;3.57;;;;;;;;;;5110257;28;20321;-75
2023/01/27 11:56:33;;;;;;;6.87;4.30;;;;;;;;;;5110565;28;20304;-75
2023/01/27 11:59:03;;;;;;;4.87;3.97;;;;;;;;;;5110435;28;20273;-75
2023/01/27 12:01:37;;;;;;;5.47;2.00;;;;;;;;;;5107912;28;20210;-75
2023/01/27 12:04:08;;;;;;;4.57;1.80;;;;;;;;;;5110031;28;20225;-75
2023/01/27 12:06:38;;;;;;;5.87;1.70;;;;;;;;;;5110112;28;20626;-75
2023/01/27 12:09:06;;;;;;;2.77;1.50;;;;;;;;;;5110410;28;20281;-75
2023/01/27 12:11:33;;;;;;;3.77;1.70;;;;;;;;;;5109990;28;20293;-74
2023/01/27 12:14:01;;;;;;;3.93;1.93;;;;;;;;;;5109995;28;20316;-74
2023/01/27 12:16:36;;;;;;;4.20;1.83;;;;;;;;;;5107663;28;20566;-74
2023/01/27 12:19:04;;;;;;;2.20;1.60;;;;;;;;;;5110920;28;20280;-75
2023/01/27 12:21:46;;;;;;;2.40;1.63;;;;;;;;;;5111300;28;20190;-75
2023/01/27 12:24:20;;;;;;;3.83;1.83;;;;;;;;;;5111235;28;20285;-76
2023/01/27 12:26:48;;;;;;;4.50;2.30;;;;;;;;;;5111346;28;20281;-75
2023/01/27 12:29:17;;;;;;;2.20;1.67;;;;;;;;;;5111258;28;20292;-75
2023/01/27 12:31:46;;;;;;;4.60;2.40;;;;;;;;;;5113761;28;20284;-75
2023/01/27 12:34:20;;;;;;;2.77;2.00;;;;;;;;;;5115830;28;20277;-75
2023/01/27 12:36:50;;;;;;;5.43;3.73;;;;;;;;;;5113060;28;20318;-75
2023/01/27 12:39:26;;;;;;;3.70;2.20;;;;;;;;;;5103767;28;20291;-74
2023/01/27 12:41:53;;;;;;;5.03;1.67;;;;;;;;;;5104792;28;20693;-76
2023/01/27 12:44:21;;;;;;;3.63;1.53;;;;;;;;;;5115217;28;20640;-76
2023/01/27 12:46:57;;;;;;;3.63;1.07;;;;;;;;;;5109176;27;20225;-76
2023/01/27 12:49:25;;;;;;;3.07;1.60;;;;;;;;;;5114634;28;20205;-76
2023/01/27 12:51:55;;;;;;;3.97;1.70;;;;;;;;;;5115070;28;20273;-76
2023/01/27 12:54:23;;;;;;;4.20;2.40;;;;;;;;;;5115220;28;20247;-76
2023/01/27 12:56:51;;;;;;;3.40;1.30;;;;;;;;;;5115390;27;20324;-76
2023/01/27 12:59:20;;;;;;;4.50;2.40;;;;;;;;;;5114933;28;20286;-76
2023/01/27 13:01:58;;;;;;;4.33;1.70;;;;;;;;;;5104600;27;20210;-76
2023/01/27 13:04:25;;;;;;;4.10;1.50;;;;;;;;;;5101210;28;20282;-75
2023/01/27 13:06:55;;;;;;;6.33;4.23;;;;;;;;;;5114158;28;20199;-76
2023/01/27 13:09:29;;;;;;;3.30;1.47;;;;;;;;;;5114122;28;20199;-76
2023/01/27 13:11:59;;;;;;;5.10;1.60;;;;;;;;;;5107123;27;20291;-76
2023/01/27 13:14:29;;;;;;;2.43;1.63;;;;;;;;;;5115783;27;20293;-75
2023/01/27 13:16:57;;;;;;;8.47;5.10;;;;;;;;;;5113888;28;20253;-76
2023/01/27 13:19:29;;;;;;;3.80;2.73;;;;;;;;;;5114655;28;20247;-75
2023/01/27 13:21:56;;;;;;;5.70;2.77;;;;;;;;;;5114177;28;20280;-76
2023/01/27 13:24:32;;;;;;;7.00;4.83;;;;;;;;;;5105308;28;20279;-75
2023/01/27 13:27:01;;;;;;;5.97;1.80;;;;;;;;;;5109317;28;20300;-76
2023/01/27 13:29:31;;;;;;;5.87;1.60;;;;;;;;;;5114956;27;20316;-76
2023/01/27 13:32:01;;;;;;;5.07;1.70;;;;;;;;;;5109292;28;20256;-76
2023/01/27 13:34:33;;;;;;;5.20;1.60;;;;;;;;;;5094088;28;20234;-75
2023/01/27 13:37:04;;;;;;;3.43;1.70;;;;;;;;;;5094058;28;20323;-76
2023/01/27 13:39:41;;;;;;;8.27;1.70;;;;;;;;;;5110455;28;20296;-76
2023/01/27 13:42:14;;;;;;;2.77;1.70;;;;;;;;;;5112633;28;20221;-75
2023/01/27 13:44:44;;;;;;;5.57;2.30;;;;;;;;;;5101138;28;20205;-76
2023/01/27 13:47:14;;;;;;;6.50;3.10;;;;;;;;;;5108961;27;20284;-76
2023/01/27 13:49:45;;;;;;;5.67;3.00;;;;;;;;;;5115827;27;20224;-75
2023/01/27 13:52:12;;;;;;;5.63;2.87;;;;;;;;;;5112952;28;20228;-74
2023/01/27 13:54:40;;;;;;;8.80;5.50;;;;;;;;;;5113265;28;20202;-76
2023/01/27 13:57:13;;;;;;;7.67;3.07;;;;;;;;;;5113540;28;20342;-76
2023/01/27 13:59:49;;;;;;;8.13;5.13;;;;;;;;;;5112448;28;20292;-76
2023/01/27 14:02:35;;;;;;;4.20;2.40;;;;;;;;;;5110544;28;20220;-76
2023/01/27 14:05:08;;;;;;;4.97;1.70;;;;;;;;;;5123670;27;20272;-75
2023/01/27 14:07:39;;;;;;;6.20;2.60;;;;;;;;;;5113152;28;20293;-77
2023/01/27 14:10:13;;;;;;;5.97;2.03;;;;;;;;;;5112873;28;20756;-76
2023/01/27 14:12:48;;;;;;;7.57;3.67;;;;;;;;;;5113296;27;20210;-76
2023/01/27 14:15:23;;;;;;;7.70;4.30;;;;;;;;;;5099474;28;20229;-76
2023/01/27 14:17:54;;;;;;;4.47;1.67;;;;;;;;;;5111589;28;20225;-76
2023/01/27 14:20:33;;;;;;;5.17;1.67;;;;;;;;;;5118250;27;20672;-76
2023/01/27 14:23:17;;;;;;;5.40;1.60;;;;;;;;;;5113462;27;20213;-76
2023/01/27 14:25:49;;;;;;;5.90;1.80;;;;;;;;;;5112922;28;20284;-76
2023/01/27 14:28:23;;;;;;;6.40;2.23;;;;;;;;;;5112266;28;20884;-76
2023/01/27 14:30:56;;;;;;;8.30;2.03;;;;;;;;;;5113008;28;20251;-77
2023/01/27 14:33:27;;;;;;;4.80;2.00;;;;;;;;;;5113383;28;20229;-76
2023/01/27 14:35:57;;;;;;;5.60;1.63;;;;;;;;;;5112920;28;20221;-76
2023/01/27 14:38:28;;;;;;;6.60;1.87;;;;;;;;;;5113088;27;20310;-74
2023/01/27 14:41:04;;;;;;;6.87;2.00;;;;;;;;;;5112651;28;20758;-76
2023/01/27 14:43:35;;;;;;;5.63;2.33;;;;;;;;;;5112740;28;20282;-75
2023/01/27 14:46:07;;;;;;;11.60;2.30;;;;;;;;;;5112236;28;20186;-76
2023/01/27 14:48:41;;;;;;;6.67;2.50;;;;;;;;;;5112437;28;20698;-76
2023/01/27 14:51:12;;;;;;;7.63;2.40;;;;;;;;;;5112538;28;20198;-75
2023/01/27 14:53:45;;;;;;;7.97;2.60;;;;;;;;;;5112050;27;20273;-76
2023/01/27 14:56:17;;;;;;;5.47;1.87;;;;;;;;;;5103485;27;20291;-76
2023/01/27 14:58:50;;;;;;;6.17;2.00;;;;;;;;;;5100516;28;20288;-77
2023/01/27 15:01:29;;;;;;;6.37;2.40;;;;;;;;;;5111204;28;20214;-76
2023/01/27 15:04:17;;;;;;;5.67;2.23;;;;;;;;;;5112232;28;20251;-76
2023/01/27 15:06:46;;;;;;;7.03;2.50;;;;;;;;;;5112126;28;20218;-76
2023/01/27 15:09:20;;;;;;;6.23;2.40;;;;;;;;;;5105840;28;20202;-76
2023/01/27 15:12:02;;;;;;;8.27;2.53;;;;;;;;;;5108988;28;20288;-77
2023/01/27 15:14:41;;;;;;;6.43;2.20;;;;;;;;;;5111436;28;20222;-76
2023/01/27 15:17:22;;;;;;;49.23;28.83;;;;;;;;;;5118255;27;20221;-76
2023/01/27 15:19:57;;;;;;;28.07;13.37;;;;;;;;;;5112437;27;20288;-77
2023/01/27 15:22:35;;;;;;;32.73;16.07;;;;;;;;;;5108266;28;20236;-76
2023/01/27 15:25:12;;;;;;;20.73;10.33;;;;;;;;;;5109280;27;20588;-77
2023/01/27 15:27:39;;;;;;;12.77;5.90;;;;;;;;;;5115978;27;20271;-77
2023/01/27 15:30:07;;;;;;;15.73;7.03;;;;;;;;;;5116159;27;20290;-76
2023/01/27 15:32:37;;;;;;;31.93;16.10;;;;;;;;;;5117078;27;20280;-76
2023/01/27 15:35:23;;;;;;;19.40;9.10;;;;;;;;;;5113818;27;20198;-77